createdAt,value
2017-11-24T00:00:30.585Z,13.70
2017-11-24T00:01:29.606Z,15.90
2017-11-24T00:02:48.119Z,22.10
2017-11-24T00:03:31.893Z,16.00
2017-11-24T00:05:03.259Z,17.30
2017-11-24T00:05:48.268Z,14.50
2017-11-24T00:06:41.752Z,15.80
2017-11-24T00:07:35.267Z,20.10
2017-11-24T00:08:31.969Z,18.00
2017-11-24T00:09:30.449Z,17.30
2017-11-24T00:10:28.949Z,14.90
2017-11-24T00:11:29.463Z,20.40
2017-11-24T00:12:30.200Z,14.80
2017-11-24T00:13:30.290Z,16.80
2017-11-24T00:14:48.162Z,20.70
2017-11-24T00:17:49.683Z,13.10
2017-11-24T00:18:48.424Z,17.30
2017-11-24T00:19:27.394Z,20.90
2017-11-24T00:20:47.978Z,19.70
2017-11-24T00:23:03.198Z,16.10
2017-11-24T00:24:00.347Z,13.80
2017-11-24T00:25:25.749Z,13.60
2017-11-24T00:26:36.471Z,20.30
2017-11-24T00:27:01.410Z,15.70
2017-11-24T00:28:00.818Z,19.00
2017-11-24T00:31:20.783Z,18.40
2017-11-24T00:31:46.465Z,18.10
2017-11-24T00:33:20.714Z,16.70
2017-11-24T00:33:58.300Z,19.20
2017-11-24T00:35:20.037Z,23.00
2017-11-24T00:35:58.587Z,18.10
2017-11-24T00:40:18.687Z,18.20
2017-11-24T00:41:17.141Z,17.20
2017-11-24T00:42:50.304Z,17.70
2017-11-24T00:43:18.211Z,21.70
2017-11-24T00:44:16.714Z,18.10
2017-11-24T00:45:16.545Z,16.70
2017-11-24T00:46:29.469Z,20.60
2017-11-24T00:48:02.617Z,14.70
2017-11-24T00:48:29.404Z,24.70
2017-11-24T00:49:17.310Z,18.30
2017-11-24T00:50:17.309Z,14.10
2017-11-24T00:51:50.573Z,18.10
2017-11-24T00:52:18.083Z,18.80
2017-11-24T00:53:17.311Z,14.00
2017-11-24T00:54:17.375Z,17.80
2017-11-24T00:57:02.555Z,17.00
2017-11-24T00:58:55.138Z,12.90
2017-11-24T00:59:02.615Z,18.20
2017-11-24T01:00:03.886Z,20.90
2017-11-24T01:01:03.259Z,15.10
2017-11-24T01:02:21.484Z,21.10
2017-11-24T01:03:21.761Z,11.60
2017-11-24T01:04:03.043Z,19.90
2017-11-24T01:05:02.629Z,18.50
2017-11-24T01:06:28.055Z,21.10
2017-11-24T01:07:02.662Z,16.90
2017-11-24T01:08:02.623Z,18.70
2017-11-24T01:09:02.130Z,22.10
2017-11-24T01:10:38.674Z,17.50
2017-11-24T01:11:03.029Z,25.70
2017-11-24T01:12:02.324Z,19.30
2017-11-24T01:13:02.426Z,15.90
2017-11-24T01:16:14.237Z,16.30
2017-11-24T01:17:07.642Z,12.00
2017-11-24T01:17:51.455Z,15.70
2017-11-24T01:18:48.314Z,23.20
2017-11-24T01:19:49.752Z,15.30
2017-11-24T01:20:49.090Z,12.30
2017-11-24T01:21:48.245Z,16.20
2017-11-24T01:22:48.216Z,18.80
2017-11-24T01:23:48.695Z,19.10
2017-11-24T01:25:21.534Z,16.20
2017-11-24T01:26:00.912Z,16.00
2017-11-24T01:27:01.010Z,13.60
2017-11-24T01:27:47.880Z,16.90
2017-11-24T01:28:47.865Z,24.60
2017-11-24T01:29:51.252Z,14.20
2017-11-24T01:30:48.103Z,13.30
2017-11-24T01:32:47.521Z,18.00
2017-11-24T01:32:48.394Z,14.50
2017-11-24T01:33:47.964Z,16.00
2017-11-24T01:34:47.954Z,19.20
2017-11-24T01:37:40.635Z,18.00
2017-11-24T01:38:37.297Z,17.80
2017-11-24T01:39:40.317Z,23.30
2017-11-24T01:40:34.412Z,12.70
2017-11-24T01:41:34.234Z,13.90
2017-11-24T01:43:10.780Z,17.30
2017-11-24T01:43:35.751Z,15.20
2017-11-24T01:44:37.402Z,15.60
2017-11-24T01:45:35.645Z,26.00
2017-11-24T01:48:45.273Z,19.20
2017-11-24T01:49:19.849Z,20.20
2017-11-24T01:50:22.759Z,16.70
2017-11-24T01:51:22.881Z,18.50
2017-11-24T01:52:22.820Z,19.50
2017-11-24T01:53:20.125Z,17.40
2017-11-24T01:54:54.548Z,20.60
2017-11-24T01:55:38.853Z,16.70
2017-11-24T01:56:19.631Z,15.30
2017-11-24T01:57:52.987Z,21.50
2017-11-24T01:58:19.561Z,21.10
2017-11-24T01:59:19.822Z,19.30
2017-11-24T02:00:45.082Z,16.60
2017-11-24T02:01:45.175Z,18.50
2017-11-24T02:02:19.675Z,21.80
2017-11-24T02:05:24.824Z,18.20
2017-11-24T02:06:40.781Z,24.70
2017-11-24T02:09:10.891Z,18.00
2017-11-24T02:10:38.173Z,14.10
2017-11-24T02:10:51.473Z,20.90
2017-11-24T02:13:40.798Z,20.50
2017-11-24T02:15:37.137Z,20.80
2017-11-24T02:15:41.374Z,24.20
2017-11-24T02:17:11.977Z,21.70
2017-11-24T02:17:39.574Z,16.60
2017-11-24T02:21:16.887Z,16.50
2017-11-24T02:21:30.256Z,17.80
2017-11-24T02:23:10.184Z,19.10
2017-11-24T02:25:10.843Z,18.10
2017-11-24T02:26:29.668Z,21.60
2017-11-24T02:27:35.962Z,21.80
2017-11-24T02:28:36.120Z,20.70
2017-11-24T02:31:15.370Z,19.10
2017-11-24T02:31:55.947Z,26.90
2017-11-24T02:32:55.928Z,16.70
2017-11-24T02:33:55.926Z,18.20
2017-11-24T02:34:55.892Z,17.00
2017-11-24T02:35:55.872Z,16.70
2017-11-24T02:36:55.856Z,16.40
2017-11-24T02:37:55.833Z,15.10
2017-11-24T02:38:55.820Z,17.60
2017-11-24T02:39:55.797Z,16.60
2017-11-24T02:40:55.788Z,20.40
2017-11-24T02:41:55.759Z,21.90
2017-11-24T02:42:55.739Z,17.80
2017-11-24T02:43:55.719Z,20.70
2017-11-24T02:44:55.699Z,12.60
2017-11-24T02:45:55.682Z,15.00
2017-11-24T02:46:55.680Z,19.50
2017-11-24T02:47:55.645Z,15.80
2017-11-24T02:48:55.626Z,25.50
2017-11-24T02:49:55.605Z,20.70
2017-11-24T02:50:55.585Z,17.60
2017-11-24T02:51:55.571Z,18.10
2017-11-24T02:52:55.552Z,15.00
2017-11-24T02:53:55.532Z,18.80
2017-11-24T02:54:55.514Z,20.00
2017-11-24T02:55:55.493Z,19.60
2017-11-24T02:56:55.479Z,17.30
2017-11-24T02:57:55.454Z,18.50
2017-11-24T02:58:55.436Z,21.50
2017-11-24T02:59:55.423Z,23.40
2017-11-24T03:00:55.403Z,14.70
2017-11-24T03:01:55.381Z,15.30
2017-11-24T03:02:55.364Z,14.90
2017-11-24T03:03:55.352Z,16.60
2017-11-24T03:04:55.323Z,19.90
2017-11-24T03:05:55.305Z,20.20
2017-11-24T03:06:55.297Z,17.40
2017-11-24T03:07:55.268Z,16.80
2017-11-24T03:08:55.251Z,13.60
2017-11-24T03:09:55.240Z,17.90
2017-11-24T03:10:55.216Z,13.70
2017-11-24T03:11:55.191Z,16.40
2017-11-24T03:12:55.179Z,15.20
2017-11-24T03:13:55.169Z,20.00
2017-11-24T03:14:55.140Z,15.40
2017-11-24T03:15:55.121Z,15.20
2017-11-24T03:16:55.103Z,14.50
2017-11-24T03:17:55.086Z,13.30
2017-11-24T03:18:55.070Z,15.90
2017-11-24T03:19:55.046Z,20.20
2017-11-24T03:20:55.025Z,22.10
2017-11-24T03:21:55.010Z,18.90
2017-11-24T03:22:55.007Z,20.20
2017-11-24T03:23:54.969Z,19.50
2017-11-24T03:24:54.978Z,14.20
2017-11-24T03:25:54.930Z,15.40
2017-11-24T03:26:54.980Z,17.90
2017-11-24T03:27:54.893Z,22.20
2017-11-24T03:28:54.927Z,22.40
2017-11-24T03:29:54.859Z,14.00
2017-11-24T03:30:54.839Z,16.00
2017-11-24T03:31:54.818Z,19.50
2017-11-24T03:32:54.806Z,15.70
2017-11-24T03:33:54.782Z,20.60
2017-11-24T03:34:54.759Z,15.00
2017-11-24T03:35:54.742Z,21.00
2017-11-24T03:36:54.733Z,17.00
2017-11-24T03:37:54.708Z,22.10
2017-11-24T03:38:54.787Z,13.70
2017-11-24T03:39:54.669Z,14.30
2017-11-24T03:40:54.649Z,19.00
2017-11-24T03:41:54.630Z,23.40
2017-11-24T03:42:54.692Z,12.50
2017-11-24T03:43:54.596Z,24.40
2017-11-24T03:44:54.571Z,18.20
2017-11-24T03:45:54.556Z,13.30
2017-11-24T03:46:54.535Z,19.50
2017-11-24T03:47:54.514Z,24.20
2017-11-24T03:48:54.569Z,20.50
2017-11-24T03:49:54.481Z,22.00
2017-11-24T03:50:54.459Z,21.60
2017-11-24T03:51:54.438Z,19.30
2017-11-24T03:52:54.529Z,17.80
2017-11-24T03:53:54.404Z,18.40
2017-11-24T03:54:54.436Z,16.40
2017-11-24T03:55:54.363Z,19.80
2017-11-24T03:56:54.346Z,19.40
2017-11-24T03:57:54.335Z,18.60
2017-11-24T03:58:54.321Z,17.70
2017-11-24T03:59:54.288Z,19.50
2017-11-24T04:00:54.275Z,17.80
2017-11-24T04:01:54.276Z,20.20
2017-11-24T04:02:54.288Z,17.40
2017-11-24T04:03:54.214Z,14.90
2017-11-24T04:04:54.240Z,18.40
2017-11-24T04:05:54.176Z,18.70
2017-11-24T04:06:54.158Z,19.80
2017-11-24T04:07:54.137Z,23.70
2017-11-24T04:08:54.128Z,27.10
2017-11-24T04:09:54.103Z,17.10
2017-11-24T04:10:54.081Z,15.80
2017-11-24T04:11:54.062Z,19.40
2017-11-24T04:12:54.044Z,19.10
2017-11-24T04:13:54.026Z,26.60
2017-11-24T04:14:54.122Z,20.20
2017-11-24T04:15:54.000Z,21.70
2017-11-24T04:16:53.971Z,15.90
2017-11-24T04:17:53.953Z,20.50
2017-11-24T04:18:53.947Z,15.80
2017-11-24T04:19:53.927Z,15.60
2017-11-24T04:20:53.902Z,22.00
2017-11-24T04:21:53.875Z,17.00
2017-11-24T04:22:53.861Z,18.10
2017-11-24T04:23:53.841Z,18.90
2017-11-24T04:24:53.846Z,25.70
2017-11-24T04:25:53.801Z,19.30
2017-11-24T04:26:53.781Z,18.10
2017-11-24T04:27:53.768Z,25.50
2017-11-24T04:28:53.764Z,15.80
2017-11-24T04:29:53.726Z,20.80
2017-11-24T04:30:53.813Z,23.50
2017-11-24T04:31:53.696Z,20.00
2017-11-24T04:32:53.676Z,16.50
2017-11-24T04:33:53.652Z,23.10
2017-11-24T04:34:53.631Z,23.40
2017-11-24T04:35:53.611Z,18.90
2017-11-24T04:36:53.592Z,14.80
2017-11-24T04:37:53.594Z,18.20
2017-11-24T04:38:53.553Z,22.30
2017-11-24T04:39:53.579Z,23.10
2017-11-24T04:40:53.518Z,19.80
2017-11-24T04:41:53.497Z,20.10
2017-11-24T04:42:53.476Z,21.20
2017-11-24T04:43:53.466Z,17.20
2017-11-24T04:44:53.448Z,19.00
2017-11-24T04:45:53.422Z,15.70
2017-11-24T04:46:53.402Z,22.30
2017-11-24T04:47:53.387Z,18.30
2017-11-24T04:48:53.364Z,14.00
2017-11-24T04:49:53.346Z,18.40
2017-11-24T04:50:53.325Z,16.00
2017-11-24T04:51:53.307Z,23.10
2017-11-24T04:52:53.285Z,18.90
2017-11-24T04:53:53.269Z,14.50
2017-11-24T04:54:53.247Z,16.70
2017-11-24T04:55:53.233Z,16.10
2017-11-24T04:56:53.215Z,18.90
2017-11-24T04:57:53.187Z,17.50
2017-11-24T04:58:53.169Z,22.30
2017-11-24T04:59:53.158Z,19.30
2017-11-24T05:00:53.129Z,16.60
2017-11-24T05:01:53.112Z,19.60
2017-11-24T05:02:53.094Z,19.50
2017-11-24T05:03:53.074Z,18.30
2017-11-24T05:04:53.054Z,18.70
2017-11-24T05:05:53.043Z,16.70
2017-11-24T05:06:53.013Z,17.40
2017-11-24T05:07:52.993Z,19.60
2017-11-24T05:08:52.974Z,22.50
2017-11-24T05:09:52.953Z,19.90
2017-11-24T05:10:52.942Z,18.90
2017-11-24T05:11:52.916Z,18.00
2017-11-24T05:12:52.901Z,20.00
2017-11-24T05:13:52.874Z,20.20
2017-11-24T05:14:52.855Z,19.90
2017-11-24T05:15:52.843Z,17.10
2017-11-24T05:16:52.815Z,18.30
2017-11-24T05:17:52.794Z,21.00
2017-11-24T05:18:52.777Z,22.10
2017-11-24T05:19:52.758Z,15.00
2017-11-24T05:20:52.742Z,21.00
2017-11-24T05:21:52.718Z,20.90
2017-11-24T05:22:52.697Z,18.30
2017-11-24T05:23:52.692Z,19.00
2017-11-24T05:24:52.658Z,24.30
2017-11-24T05:25:52.649Z,26.60
2017-11-24T05:26:52.623Z,19.40
2017-11-24T05:27:52.601Z,20.90
2017-11-24T05:28:52.604Z,17.50
2017-11-24T05:29:52.560Z,20.30
2017-11-24T05:30:52.540Z,27.40
2017-11-24T05:31:52.522Z,25.90
2017-11-24T05:32:52.499Z,25.20
2017-11-24T05:33:52.492Z,22.10
2017-11-24T05:34:52.463Z,22.40
2017-11-24T05:35:52.442Z,24.40
2017-11-24T05:36:52.423Z,25.10
2017-11-24T05:37:52.406Z,27.90
2017-11-24T05:38:52.382Z,25.60
2017-11-24T05:39:52.370Z,24.70
2017-11-24T05:40:52.345Z,20.80
2017-11-24T05:41:52.329Z,22.00
2017-11-24T05:42:52.309Z,20.00
2017-11-24T05:43:52.289Z,17.20
2017-11-24T05:44:52.270Z,21.30
2017-11-24T05:45:52.249Z,23.10
2017-11-24T05:46:52.236Z,27.50
2017-11-24T05:47:52.226Z,24.20
2017-11-24T05:48:52.191Z,26.00
2017-11-24T05:49:52.184Z,23.60
2017-11-24T05:50:52.153Z,22.70
2017-11-24T05:51:52.142Z,21.10
2017-11-24T05:52:52.123Z,21.20
2017-11-24T05:53:52.102Z,18.10
2017-11-24T05:54:52.079Z,24.20
2017-11-24T05:55:52.057Z,25.80
2017-11-24T05:56:52.036Z,21.10
2017-11-24T05:57:52.017Z,24.10
2017-11-24T05:58:51.995Z,24.50
2017-11-24T05:59:51.980Z,21.90
2017-11-24T06:00:51.958Z,24.60
2017-11-24T06:01:51.937Z,28.20
2017-11-24T06:02:51.928Z,24.80
2017-11-24T06:03:51.909Z,23.60
2017-11-24T06:04:51.886Z,25.70
2017-11-24T06:05:51.866Z,23.30
2017-11-24T06:06:51.846Z,18.70
2017-11-24T06:07:51.830Z,23.40
2017-11-24T06:08:51.805Z,19.50
2017-11-24T06:09:51.787Z,21.70
2017-11-24T06:10:51.765Z,17.40
2017-11-24T06:11:51.754Z,22.20
2017-11-24T06:12:51.727Z,20.90
2017-11-24T06:13:51.709Z,21.40
2017-11-24T06:14:51.696Z,15.90
2017-11-24T06:15:51.668Z,16.00
2017-11-24T06:16:51.653Z,19.00
2017-11-24T06:17:51.629Z,20.40
2017-11-24T06:18:51.613Z,19.40
2017-11-24T06:19:51.592Z,17.00
2017-11-24T06:20:51.579Z,15.60
2017-11-24T06:21:51.557Z,17.50
2017-11-24T06:22:51.535Z,13.30
2017-11-24T06:23:51.513Z,17.10
2017-11-24T06:24:51.505Z,17.30
2017-11-24T06:25:51.480Z,18.20
2017-11-24T06:26:51.462Z,21.40
2017-11-24T06:27:51.434Z,20.70
2017-11-24T06:28:51.417Z,17.10
2017-11-24T06:29:51.398Z,18.40
2017-11-24T06:30:51.377Z,19.10
2017-11-24T06:31:51.374Z,20.90
2017-11-24T06:32:51.342Z,19.80
2017-11-24T06:33:51.321Z,19.10
2017-11-24T06:34:51.306Z,21.20
2017-11-24T06:35:51.333Z,19.20
2017-11-24T06:36:51.261Z,19.70
2017-11-24T06:37:51.276Z,17.70
2017-11-24T06:38:51.221Z,21.30
2017-11-24T06:39:51.202Z,20.00
2017-11-24T06:40:51.184Z,15.60
2017-11-24T06:41:51.229Z,17.50
2017-11-24T06:42:51.142Z,16.00
2017-11-24T06:43:51.126Z,18.30
2017-11-24T06:44:51.111Z,19.60
2017-11-24T06:45:51.129Z,23.20
2017-11-24T06:46:51.072Z,22.20
2017-11-24T06:47:51.065Z,19.40
2017-11-24T06:48:51.029Z,24.10
2017-11-24T06:49:51.009Z,21.50
2017-11-24T06:50:50.988Z,24.90
2017-11-24T06:51:51.020Z,20.30
2017-11-24T06:52:50.953Z,22.90
2017-11-24T06:53:50.931Z,20.50
2017-11-24T06:54:50.913Z,21.80
2017-11-24T06:55:50.890Z,23.30
2017-11-24T06:56:50.871Z,19.50
2017-11-24T06:57:50.900Z,19.90
2017-11-24T06:58:50.833Z,21.20
2017-11-24T06:59:50.813Z,17.10
2017-11-24T07:00:50.799Z,22.30
2017-11-24T07:01:50.880Z,21.00
2017-11-24T07:02:50.751Z,20.00
2017-11-24T07:03:50.732Z,21.60
2017-11-24T07:04:50.720Z,20.10
2017-11-24T07:05:50.701Z,24.90
2017-11-24T07:06:50.672Z,23.70
2017-11-24T07:07:50.753Z,26.70
2017-11-24T07:08:50.653Z,21.50
2017-11-24T07:09:50.611Z,18.30
2017-11-24T07:10:50.590Z,19.50
2017-11-24T07:11:50.587Z,19.80
2017-11-24T07:12:50.551Z,18.00
2017-11-24T07:13:50.609Z,14.90
2017-11-24T07:14:50.509Z,18.00
2017-11-24T07:15:50.490Z,21.20
2017-11-24T07:16:50.470Z,19.90
2017-11-24T07:17:50.465Z,19.00
2017-11-24T07:18:50.430Z,19.70
2017-11-24T07:19:50.411Z,14.50
2017-11-24T07:20:50.390Z,21.50
2017-11-24T07:21:50.525Z,19.00
2017-11-24T07:22:50.353Z,16.60
2017-11-24T07:23:50.701Z,15.30
2017-11-24T07:24:50.312Z,16.50
2017-11-24T07:25:50.298Z,16.80
2017-11-24T07:26:50.269Z,15.00
2017-11-24T07:27:50.250Z,15.40
2017-11-24T07:28:50.231Z,14.80
2017-11-24T07:29:50.209Z,16.50
2017-11-24T07:30:50.189Z,14.70
2017-11-24T07:31:50.169Z,13.40
2017-11-24T07:32:50.148Z,17.40
2017-11-24T07:33:50.145Z,21.50
2017-11-24T07:34:50.109Z,14.90
2017-11-24T07:35:50.088Z,17.60
2017-11-24T07:36:50.072Z,15.90
2017-11-24T07:37:50.068Z,15.40
2017-11-24T07:38:50.033Z,17.60
2017-11-24T07:39:50.015Z,22.60
2017-11-24T07:40:49.996Z,23.20
2017-11-24T07:41:49.970Z,17.50
2017-11-24T07:42:49.952Z,22.40
2017-11-24T07:43:49.932Z,19.40
2017-11-24T07:44:49.911Z,21.40
2017-11-24T07:45:49.894Z,25.10
2017-11-24T07:46:49.868Z,24.90
2017-11-24T07:47:49.850Z,12.80
2017-11-24T07:48:49.836Z,21.90
2017-11-24T07:49:49.810Z,18.20
2017-11-24T07:50:49.797Z,19.60
2017-11-24T07:51:49.771Z,14.90
2017-11-24T07:52:49.764Z,16.00
2017-11-24T07:53:49.730Z,15.20
2017-11-24T07:54:49.716Z,17.30
2017-11-24T07:55:49.700Z,18.80
2017-11-24T07:56:49.671Z,16.30
2017-11-24T07:57:49.652Z,18.40
2017-11-24T07:58:49.632Z,18.90
2017-11-24T07:59:49.611Z,16.60
2017-11-24T08:00:49.600Z,14.80
2017-11-24T08:01:49.575Z,18.30
2017-11-24T08:02:49.558Z,19.90
2017-11-24T08:03:49.534Z,18.90
2017-11-24T08:04:49.530Z,17.00
2017-11-24T08:05:49.492Z,16.40
2017-11-24T08:06:49.478Z,19.30
2017-11-24T08:07:49.452Z,17.20
2017-11-24T08:08:49.437Z,16.10
2017-11-24T08:09:49.417Z,18.70
2017-11-24T08:10:49.396Z,24.80
2017-11-24T08:11:49.380Z,18.40
2017-11-24T08:12:49.360Z,18.90
2017-11-24T08:13:49.345Z,18.10
2017-11-24T08:14:49.321Z,18.00
2017-11-24T08:15:49.298Z,20.80
2017-11-24T08:16:49.279Z,18.20
2017-11-24T08:17:49.259Z,19.90
2017-11-24T08:18:49.245Z,17.60
2017-11-24T08:19:49.218Z,19.00
2017-11-24T08:20:49.201Z,26.00
2017-11-24T08:21:49.182Z,19.60
2017-11-24T08:22:49.176Z,19.50
2017-11-24T08:23:49.144Z,44.30
2017-11-24T08:24:49.124Z,22.00
2017-11-24T08:25:49.110Z,25.60
2017-11-24T08:26:49.084Z,18.60
2017-11-24T08:27:49.066Z,18.90
2017-11-24T08:28:49.048Z,24.10
2017-11-24T08:29:49.027Z,20.50
2017-11-24T08:30:49.017Z,15.00
2017-11-24T08:31:48.992Z,16.80
2017-11-24T08:32:48.971Z,20.80
2017-11-24T08:33:48.952Z,13.90
2017-11-24T08:34:48.944Z,19.60
2017-11-24T08:35:48.912Z,13.90
2017-11-24T08:36:48.897Z,17.40
2017-11-24T08:37:48.875Z,14.80
2017-11-24T08:38:48.853Z,14.30
2017-11-24T08:39:48.855Z,14.50
2017-11-24T08:40:48.823Z,14.50
2017-11-24T08:41:48.800Z,13.90
2017-11-24T08:42:48.776Z,16.70
2017-11-24T08:43:48.755Z,13.30
2017-11-24T08:44:48.742Z,13.90
2017-11-24T08:45:48.742Z,13.70
2017-11-24T08:46:48.698Z,16.50
2017-11-24T08:47:48.679Z,15.50
2017-11-24T08:48:48.664Z,11.90
2017-11-24T08:49:48.644Z,13.10
2017-11-24T08:50:48.622Z,16.50
2017-11-24T08:51:48.604Z,13.70
2017-11-24T08:52:48.582Z,12.20
2017-11-24T08:53:48.563Z,9.70
2017-11-24T08:54:48.544Z,11.70
2017-11-24T08:55:48.525Z,15.00
2017-11-24T08:56:48.541Z,9.60
2017-11-24T08:57:48.490Z,18.30
2017-11-24T08:58:48.500Z,12.50
2017-11-24T08:59:48.450Z,15.90
2017-11-24T09:00:48.431Z,15.00
2017-11-24T09:01:48.423Z,14.60
2017-11-24T09:02:48.393Z,13.40
2017-11-24T09:03:48.380Z,10.20
2017-11-24T09:04:48.364Z,14.50
2017-11-24T09:05:48.339Z,11.10
2017-11-24T09:06:48.319Z,10.10
2017-11-24T09:07:48.299Z,11.20
2017-11-24T09:08:48.298Z,14.40
2017-11-24T09:09:48.270Z,7.40
2017-11-24T09:10:48.268Z,11.00
2017-11-24T09:11:48.228Z,14.30
2017-11-24T09:12:48.218Z,11.10
2017-11-24T09:13:48.197Z,10.00
2017-11-24T09:14:48.171Z,14.40
2017-11-24T09:15:48.160Z,11.30
2017-11-24T09:16:48.134Z,11.50
2017-11-24T09:17:48.129Z,10.80
2017-11-24T09:18:48.108Z,10.80
2017-11-24T09:19:48.095Z,10.30
2017-11-24T09:20:48.064Z,12.20
2017-11-24T09:21:48.039Z,12.90
2017-11-24T09:22:48.025Z,12.10
2017-11-24T09:23:48.010Z,9.80
2017-11-24T09:24:48.094Z,11.50
2017-11-24T09:25:47.969Z,9.90
2017-11-24T09:26:47.951Z,10.60
2017-11-24T09:27:47.937Z,9.60
2017-11-24T09:28:47.926Z,10.50
2017-11-24T09:29:47.897Z,10.90
2017-11-24T09:30:47.981Z,8.00
2017-11-24T09:31:47.859Z,10.40
2017-11-24T09:32:47.844Z,14.00
2017-11-24T09:33:47.834Z,11.20
2017-11-24T09:34:47.811Z,12.50
2017-11-24T09:35:47.792Z,11.00
2017-11-24T09:36:47.768Z,9.00
2017-11-24T09:37:47.750Z,10.30
2017-11-24T09:38:47.736Z,16.90
2017-11-24T09:39:47.715Z,9.00
2017-11-24T09:40:47.725Z,12.10
2017-11-24T09:41:47.676Z,11.40
2017-11-24T09:42:47.658Z,15.10
2017-11-24T09:43:47.658Z,13.00
2017-11-24T09:44:47.650Z,13.50
2017-11-24T09:45:47.613Z,13.30
2017-11-24T09:46:47.584Z,11.50
2017-11-24T09:47:47.576Z,8.10
2017-11-24T09:48:47.550Z,11.10
2017-11-24T09:49:47.532Z,14.10
2017-11-24T09:50:47.524Z,10.40
2017-11-24T09:51:47.501Z,13.70
2017-11-24T09:52:47.477Z,13.90
2017-11-24T09:53:47.462Z,10.80
2017-11-24T09:54:47.543Z,10.90
2017-11-24T09:55:47.423Z,10.50
2017-11-24T09:56:47.457Z,12.80
2017-11-24T09:57:47.386Z,14.30
2017-11-24T09:58:47.385Z,13.80
2017-11-24T09:59:47.353Z,10.50
2017-11-24T10:00:47.432Z,10.00
2017-11-24T10:01:47.311Z,12.90
2017-11-24T10:02:47.292Z,9.30
2017-11-24T10:03:47.273Z,13.70
2017-11-24T10:04:47.363Z,13.30
2017-11-24T10:05:47.242Z,15.40
2017-11-24T10:06:47.228Z,15.90
2017-11-24T10:07:47.205Z,12.30
2017-11-24T10:08:47.182Z,15.20
2017-11-24T10:09:47.166Z,16.80
2017-11-24T10:10:47.212Z,10.20
2017-11-24T10:11:47.131Z,13.70
2017-11-24T10:12:47.112Z,8.40
2017-11-24T10:13:47.095Z,10.40
2017-11-24T10:14:47.080Z,10.30
2017-11-24T10:15:47.072Z,7.90
2017-11-24T10:16:47.137Z,10.40
2017-11-24T10:17:47.021Z,7.40
2017-11-24T10:18:47.004Z,10.80
2017-11-24T10:19:46.989Z,8.10
2017-11-24T10:20:46.975Z,6.50
2017-11-24T10:21:46.951Z,7.50
2017-11-24T10:22:46.934Z,9.20
2017-11-24T10:23:46.923Z,7.30
2017-11-24T10:24:46.898Z,8.00
2017-11-24T10:25:46.887Z,7.60
2017-11-24T10:26:46.894Z,7.90
2017-11-24T10:27:46.851Z,8.20
2017-11-24T10:28:46.828Z,7.10
2017-11-24T10:29:46.814Z,10.50
2017-11-24T10:30:46.799Z,9.70
2017-11-24T10:31:46.792Z,5.90
2017-11-24T10:32:46.762Z,9.70
2017-11-24T10:33:46.736Z,7.90
2017-11-24T10:34:46.720Z,12.00
2017-11-24T10:35:46.702Z,7.80
2017-11-24T10:36:46.690Z,5.00
2017-11-24T10:37:46.668Z,7.60
2017-11-24T10:38:46.651Z,8.70
2017-11-24T10:39:46.631Z,8.20
2017-11-24T10:40:46.636Z,14.90
2017-11-24T10:41:46.598Z,10.70
2017-11-24T10:42:46.583Z,11.40
2017-11-24T10:43:46.563Z,11.30
2017-11-24T10:44:46.540Z,6.90
2017-11-24T10:45:46.538Z,8.40
2017-11-24T10:46:46.592Z,10.80
2017-11-24T10:47:46.485Z,12.30
2017-11-24T10:48:46.486Z,13.50
2017-11-24T10:49:46.460Z,12.50
2017-11-24T10:50:46.441Z,15.20
2017-11-24T10:51:46.428Z,12.50
2017-11-24T10:52:46.533Z,12.20
2017-11-24T10:53:46.382Z,9.40
2017-11-24T10:54:46.372Z,9.70
2017-11-24T10:55:46.342Z,11.80
2017-11-24T10:56:46.333Z,10.50
2017-11-24T10:57:46.314Z,11.00
2017-11-24T10:58:46.286Z,13.40
2017-11-24T10:59:46.270Z,11.90
2017-11-24T11:00:46.253Z,12.50
2017-11-24T11:01:46.237Z,11.50
2017-11-24T11:02:46.366Z,10.40
2017-11-24T11:03:46.197Z,15.60
2017-11-24T11:04:46.188Z,12.40
2017-11-24T11:05:46.164Z,13.30
2017-11-24T11:06:46.155Z,10.60
2017-11-24T11:07:46.126Z,10.80
2017-11-24T11:08:46.109Z,15.70
2017-11-24T11:09:46.091Z,21.60
2017-11-24T11:10:46.075Z,14.00
2017-11-24T11:11:46.059Z,15.40
2017-11-24T11:12:46.047Z,11.40
2017-11-24T11:13:46.020Z,15.60
2017-11-24T11:14:46.021Z,12.00
2017-11-24T11:15:45.991Z,9.90
2017-11-24T11:16:45.984Z,13.80
2017-11-24T11:17:45.949Z,10.40
2017-11-24T11:18:45.966Z,12.50
2017-11-24T11:19:45.913Z,18.30
2017-11-24T11:20:45.899Z,11.40
2017-11-24T11:21:45.879Z,9.60
2017-11-24T11:22:45.931Z,8.00
2017-11-24T11:23:45.844Z,8.50
2017-11-24T11:24:45.836Z,8.80
2017-11-24T11:25:45.825Z,10.90
2017-11-24T11:26:45.871Z,12.00
2017-11-24T11:27:45.778Z,10.80
2017-11-24T11:28:45.850Z,11.10
2017-11-24T11:29:45.749Z,12.30
2017-11-24T11:30:45.728Z,14.50
2017-11-24T11:31:45.708Z,8.70
2017-11-24T11:32:45.792Z,9.70
2017-11-24T11:33:45.684Z,10.00
2017-11-24T11:34:45.669Z,10.90
2017-11-24T11:35:45.643Z,10.90
2017-11-24T11:36:45.621Z,10.90
2017-11-24T11:37:45.612Z,11.20
2017-11-24T11:38:45.607Z,15.40
2017-11-24T11:39:45.570Z,15.40
2017-11-24T11:40:45.558Z,12.40
2017-11-24T11:41:45.546Z,11.50
2017-11-24T11:42:45.541Z,11.80
2017-11-24T11:43:45.507Z,13.20
2017-11-24T11:44:45.494Z,13.20
2017-11-24T11:45:45.474Z,11.30
2017-11-24T11:46:45.452Z,11.50
2017-11-24T11:47:45.433Z,11.10
2017-11-24T11:48:45.413Z,12.30
2017-11-24T11:49:45.397Z,15.50
2017-11-24T11:50:45.378Z,12.60
2017-11-24T11:51:45.365Z,12.30
2017-11-24T11:52:45.367Z,12.90
2017-11-24T11:53:45.331Z,15.10
2017-11-24T11:54:45.312Z,13.50
2017-11-24T11:55:45.294Z,14.10
2017-11-24T11:56:45.272Z,11.10
2017-11-24T11:57:45.255Z,21.90
2017-11-24T11:58:45.294Z,15.10
2017-11-24T11:59:45.218Z,13.20
2017-11-24T12:00:45.199Z,12.80
2017-11-24T12:01:45.193Z,13.30
2017-11-24T12:02:45.163Z,15.40
2017-11-24T12:03:45.154Z,14.50
2017-11-24T12:04:45.143Z,13.00
2017-11-24T12:05:45.108Z,17.70
2017-11-24T12:06:45.094Z,11.40
2017-11-24T12:07:45.082Z,13.00
2017-11-24T12:08:45.056Z,12.70
2017-11-24T12:09:45.044Z,16.50
2017-11-24T12:10:45.030Z,15.10
2017-11-24T12:11:45.013Z,14.50
2017-11-24T12:12:44.988Z,13.30
2017-11-24T12:13:44.968Z,12.50
2017-11-24T12:14:44.953Z,13.20
2017-11-24T12:15:44.930Z,13.10
2017-11-24T12:16:44.912Z,13.40
2017-11-24T12:17:44.898Z,12.50
2017-11-24T12:18:44.876Z,15.20
2017-11-24T12:19:44.860Z,14.90
2017-11-24T12:20:44.842Z,13.90
2017-11-24T12:21:44.831Z,16.10
2017-11-24T12:22:44.806Z,13.10
2017-11-24T12:23:44.800Z,13.90
2017-11-24T12:24:44.777Z,15.50
2017-11-24T12:25:44.761Z,14.20
2017-11-24T12:26:44.753Z,14.30
2017-11-24T12:27:44.715Z,14.40
2017-11-24T12:28:44.705Z,13.60
2017-11-24T12:29:44.682Z,21.70
2017-11-24T12:30:44.660Z,16.30
2017-11-24T12:31:44.647Z,14.00
2017-11-24T12:32:44.626Z,11.40
2017-11-24T12:33:44.606Z,12.30
2017-11-24T12:34:44.626Z,16.40
2017-11-24T12:35:44.609Z,14.50
2017-11-24T12:36:44.568Z,13.60
2017-11-24T12:37:44.535Z,16.50
2017-11-24T12:38:44.518Z,16.80
2017-11-24T12:39:44.497Z,16.50
2017-11-24T12:40:44.482Z,13.30
2017-11-24T12:41:44.470Z,15.10
2017-11-24T12:42:44.460Z,15.70
2017-11-24T12:43:44.423Z,15.70
2017-11-24T12:44:44.407Z,14.50
2017-11-24T12:45:44.390Z,17.70
2017-11-24T12:46:44.385Z,31.60
2017-11-24T12:47:44.362Z,23.40
2017-11-24T12:48:44.342Z,19.40
2017-11-24T12:49:44.317Z,21.40
2017-11-24T12:50:44.311Z,16.00
2017-11-24T12:51:44.279Z,14.00
2017-11-24T12:52:44.265Z,15.60
2017-11-24T12:53:44.255Z,17.10
2017-11-24T12:54:44.227Z,16.80
2017-11-24T12:55:44.205Z,14.30
2017-11-24T12:56:44.192Z,12.00
2017-11-24T12:57:44.172Z,16.20
2017-11-24T12:58:44.148Z,11.20
2017-11-24T12:59:44.148Z,11.30
2017-11-24T13:00:44.122Z,14.00
2017-11-24T13:01:44.101Z,15.50
2017-11-24T13:02:44.090Z,15.10
2017-11-24T13:03:44.056Z,13.60
2017-11-24T13:04:44.040Z,11.80
2017-11-24T13:05:44.026Z,13.00
2017-11-24T13:06:44.036Z,10.60
2017-11-24T13:07:43.989Z,12.50
2017-11-24T13:08:43.963Z,12.80
2017-11-24T13:09:43.947Z,11.90
2017-11-24T13:10:43.927Z,11.30
2017-11-24T13:11:43.914Z,14.20
2017-11-24T13:12:43.903Z,14.10
2017-11-24T13:13:43.878Z,10.70
2017-11-24T13:14:43.874Z,10.90
2017-11-24T13:15:43.834Z,13.40
2017-11-24T13:16:43.816Z,14.20
2017-11-24T13:17:43.797Z,8.60
2017-11-24T13:18:43.784Z,8.10
2017-11-24T13:19:43.771Z,9.70
2017-11-24T13:20:43.742Z,10.40